Terminal Aerodrome Forecast
Issued by NWS

Current Version | Previous Version | Text Only | Print | Product List | Glossary On
Versions: 1 2 3 4 5 6 7 8 9 10 11 12 13 14 15 16 17 18
000
FTAK31 PANC 261136
TAFADL
TAF
PADL 261136Z 2612/2712 13010KT P6SM -SHRA BKN015
     FM262100 10009KT P6SM -SHRA SCT009 OVC025
     FM270600 12008KT P6SM -RA OVC015=

USA.gov is the U.S. government's official web portal to all federal, state and local government web resources and services.